createdAt,value
2023-03-31T00:01:33.895Z,4.20
2023-03-31T00:04:04.384Z,3.70
2023-03-31T00:06:37.895Z,4.10
2023-03-31T00:09:06.569Z,4.07
2023-03-31T00:11:34.370Z,4.07
2023-03-31T00:14:02.422Z,3.70
2023-03-31T00:16:30.252Z,4.23
2023-03-31T00:18:58.080Z,4.13
2023-03-31T00:21:28.864Z,4.60
2023-03-31T00:23:58.107Z,4.40
2023-03-31T00:26:26.499Z,4.00
2023-03-31T00:28:55.053Z,4.27
2023-03-31T00:31:23.821Z,3.73
2023-03-31T00:33:51.979Z,4.63
2023-03-31T00:36:27.145Z,5.00
2023-03-31T00:38:59.127Z,3.80
2023-03-31T00:41:27.450Z,4.97
2023-03-31T00:44:08.137Z,5.30
2023-03-31T00:46:41.369Z,3.90
2023-03-31T00:49:16.142Z,4.50
2023-03-31T00:51:44.843Z,4.40
2023-03-31T00:54:15.290Z,4.10
2023-03-31T00:56:48.411Z,4.90
2023-03-31T00:59:17.756Z,4.60
2023-03-31T01:01:50.478Z,4.27
2023-03-31T01:04:22.440Z,4.67
2023-03-31T01:07:00.756Z,5.00
2023-03-31T01:09:34.956Z,4.77
2023-03-31T01:12:05.719Z,5.13
2023-03-31T01:14:34.620Z,4.57
2023-03-31T01:17:02.724Z,4.77
2023-03-31T01:19:45.961Z,4.70
2023-03-31T01:22:33.482Z,4.43
2023-03-31T01:25:42.664Z,4.67
2023-03-31T01:28:24.598Z,5.03
2023-03-31T01:31:20.401Z,4.53
2023-03-31T01:34:26.536Z,4.80
2023-03-31T01:37:30.505Z,4.23
2023-03-31T01:40:40.040Z,4.57
2023-03-31T01:43:14.296Z,4.97
2023-03-31T01:45:56.547Z,5.13
2023-03-31T01:48:34.055Z,4.50
2023-03-31T01:51:06.509Z,6.50
2023-03-31T01:53:39.560Z,7.40
2023-03-31T01:56:14.567Z,5.57
2023-03-31T01:58:45.580Z,4.87
2023-03-31T02:01:19.694Z,4.90
2023-03-31T02:03:52.316Z,4.57
2023-03-31T02:06:24.508Z,5.03
2023-03-31T02:08:58.300Z,4.80
2023-03-31T02:11:29.976Z,4.90
2023-03-31T02:14:01.767Z,4.93
2023-03-31T02:16:32.590Z,4.93
2023-03-31T02:19:05.416Z,4.60
2023-03-31T02:21:35.236Z,5.13
2023-03-31T02:24:06.528Z,5.00
2023-03-31T02:26:41.039Z,4.80
2023-03-31T02:29:08.954Z,5.17
2023-03-31T02:31:45.192Z,4.80
2023-03-31T02:34:13.366Z,4.93
2023-03-31T02:36:42.397Z,5.00
2023-03-31T02:39:12.890Z,5.00
2023-03-31T02:41:42.895Z,5.00
2023-03-31T02:44:11.479Z,4.27
2023-03-31T02:46:39.800Z,4.57
2023-03-31T02:49:09.589Z,5.20
2023-03-31T02:51:56.956Z,4.20
2023-03-31T02:54:39.503Z,5.43
2023-03-31T02:57:21.549Z,4.90
2023-03-31T03:00:01.482Z,4.73
2023-03-31T03:02:38.777Z,4.77
2023-03-31T03:05:20.120Z,4.90
2023-03-31T03:07:56.689Z,4.83
2023-03-31T03:10:32.499Z,5.00
2023-03-31T03:13:10.649Z,5.60
2023-03-31T03:15:42.918Z,5.70
2023-03-31T03:18:10.823Z,4.63
2023-03-31T03:20:39.104Z,5.20
2023-03-31T03:23:06.838Z,4.80
2023-03-31T03:25:35.184Z,5.30
2023-03-31T03:28:04.341Z,5.07
2023-03-31T03:30:32.141Z,5.03
2023-03-31T03:32:59.973Z,6.30
2023-03-31T03:35:27.853Z,4.73
2023-03-31T03:37:55.747Z,6.00
2023-03-31T03:40:23.535Z,4.80
2023-03-31T03:42:51.320Z,5.57
2023-03-31T03:45:20.515Z,6.07
2023-03-31T03:47:48.275Z,5.40
2023-03-31T03:50:16.625Z,5.20
2023-03-31T03:52:44.569Z,5.83
2023-03-31T03:55:13.786Z,5.50
2023-03-31T03:57:41.631Z,6.57
2023-03-31T04:00:12.299Z,4.77
2023-03-31T04:02:41.940Z,4.73
2023-03-31T04:05:10.767Z,3.83
2023-03-31T04:07:38.598Z,4.40
2023-03-31T04:10:07.360Z,5.00
2023-03-31T04:12:36.125Z,4.73
2023-03-31T04:15:04.108Z,5.50
2023-03-31T04:17:34.488Z,4.83
2023-03-31T04:20:09.160Z,5.27
2023-03-31T04:22:40.792Z,5.40
2023-03-31T04:25:16.432Z,4.83
2023-03-31T04:27:46.747Z,4.27
2023-03-31T04:30:22.849Z,4.73
2023-03-31T04:32:53.492Z,5.07
2023-03-31T04:35:24.352Z,4.30
2023-03-31T04:37:58.601Z,4.93
2023-03-31T04:40:26.513Z,4.30
2023-03-31T04:42:54.303Z,3.80
2023-03-31T04:45:22.098Z,4.60
2023-03-31T04:47:49.926Z,4.43
2023-03-31T04:50:17.826Z,4.60
2023-03-31T04:52:46.977Z,4.97
2023-03-31T04:55:14.732Z,4.37
2023-03-31T04:57:43.041Z,4.30
2023-03-31T05:00:11.853Z,5.53
2023-03-31T05:02:39.758Z,4.60
2023-03-31T05:05:07.996Z,4.43
2023-03-31T05:07:35.772Z,4.40
2023-03-31T05:10:05.462Z,5.27
2023-03-31T05:12:35.754Z,5.00
2023-03-31T05:15:03.513Z,5.07
2023-03-31T05:17:33.770Z,6.10
2023-03-31T05:20:01.697Z,6.30
2023-03-31T05:22:29.648Z,5.37
2023-03-31T05:24:57.400Z,5.10
2023-03-31T05:27:26.522Z,4.70
2023-03-31T05:29:54.340Z,5.40
2023-03-31T05:32:22.124Z,4.80
2023-03-31T05:34:52.522Z,4.67
2023-03-31T05:37:21.233Z,4.60
2023-03-31T05:39:49.032Z,4.50
2023-03-31T05:42:16.801Z,4.67
2023-03-31T05:44:45.983Z,4.33
2023-03-31T05:47:14.228Z,4.67
2023-03-31T05:49:42.105Z,5.63
2023-03-31T05:52:10.898Z,5.40
2023-03-31T05:54:38.831Z,5.07
2023-03-31T05:57:06.692Z,4.90
2023-03-31T05:59:36.118Z,4.87
2023-03-31T06:02:05.986Z,5.00
2023-03-31T06:04:33.817Z,5.03
2023-03-31T06:07:01.635Z,6.00
2023-03-31T06:09:29.448Z,6.17
2023-03-31T06:11:57.284Z,4.43
2023-03-31T06:14:25.157Z,5.13
2023-03-31T06:16:52.942Z,5.40
2023-03-31T06:19:22.347Z,5.40
2023-03-31T06:21:50.208Z,6.03
2023-03-31T06:24:17.933Z,5.10
2023-03-31T06:26:45.787Z,4.57
2023-03-31T06:29:13.564Z,3.67
2023-03-31T06:31:41.428Z,3.00
2023-03-31T06:34:09.191Z,2.70
2023-03-31T06:36:38.366Z,3.60
2023-03-31T06:39:06.121Z,3.90
2023-03-31T06:41:33.880Z,3.70
2023-03-31T06:44:01.614Z,3.60
2023-03-31T06:46:29.538Z,3.60
2023-03-31T06:48:57.419Z,2.33
2023-03-31T06:51:25.215Z,2.27
2023-03-31T06:53:54.332Z,1.70
2023-03-31T06:56:22.128Z,1.93
2023-03-31T06:58:49.979Z,1.40
2023-03-31T07:01:17.799Z,1.87
2023-03-31T07:03:45.612Z,1.60
2023-03-31T07:06:13.489Z,1.90
2023-03-31T07:08:41.246Z,1.73
2023-03-31T07:11:10.685Z,1.83
2023-03-31T07:13:38.816Z,1.73
2023-03-31T07:16:08.187Z,1.60
2023-03-31T07:18:37.095Z,1.40
2023-03-31T07:21:09.647Z,1.40
2023-03-31T07:23:38.496Z,1.20
2023-03-31T07:26:06.671Z,1.63
2023-03-31T07:28:36.384Z,1.40
2023-03-31T07:31:04.797Z,1.40
2023-03-31T07:33:32.735Z,1.50
2023-03-31T07:36:11.715Z,1.80
2023-03-31T07:38:41.885Z,1.60
2023-03-31T07:41:11.946Z,1.30
2023-03-31T07:43:41.453Z,1.40
2023-03-31T07:46:16.139Z,1.67
2023-03-31T07:48:46.367Z,1.67
2023-03-31T07:51:14.571Z,1.50
2023-03-31T07:53:42.386Z,1.80
2023-03-31T07:56:10.300Z,1.77
2023-03-31T07:58:38.226Z,1.70
2023-03-31T08:01:08.266Z,1.70
2023-03-31T08:03:36.485Z,2.03
2023-03-31T08:06:05.106Z,1.70
2023-03-31T08:08:33.625Z,2.33
2023-03-31T08:11:01.557Z,1.83
2023-03-31T08:13:29.338Z,2.03
2023-03-31T08:15:57.278Z,1.87
2023-03-31T08:18:26.481Z,1.60
2023-03-31T08:20:54.325Z,1.70
2023-03-31T08:23:22.208Z,1.93
2023-03-31T08:25:49.944Z,1.90
2023-03-31T08:28:18.445Z,2.10
2023-03-31T08:30:46.256Z,1.87
2023-03-31T08:33:14.179Z,2.00
2023-03-31T08:35:43.311Z,1.70
2023-03-31T08:38:11.233Z,2.30
2023-03-31T08:40:42.318Z,2.40
2023-03-31T08:43:18.422Z,2.60
2023-03-31T08:45:48.599Z,1.90
2023-03-31T08:48:25.690Z,2.57
2023-03-31T08:50:59.381Z,1.97
2023-03-31T08:53:29.937Z,2.33
2023-03-31T08:55:59.184Z,2.07
2023-03-31T08:58:39.417Z,2.10
2023-03-31T09:01:16.761Z,1.90
2023-03-31T09:03:55.502Z,2.00
2023-03-31T09:06:33.939Z,2.40
2023-03-31T09:09:03.771Z,2.10
2023-03-31T09:11:36.597Z,1.60
2023-03-31T09:14:26.109Z,1.67
2023-03-31T09:17:00.742Z,1.50
2023-03-31T09:19:36.587Z,1.90
2023-03-31T09:22:12.142Z,1.43
2023-03-31T09:24:51.949Z,1.40
2023-03-31T09:27:21.047Z,1.70
2023-03-31T09:29:53.538Z,1.90
2023-03-31T09:32:23.659Z,1.50
2023-03-31T09:34:54.137Z,1.60
2023-03-31T09:37:23.573Z,1.50
2023-03-31T09:39:51.408Z,1.67
2023-03-31T09:42:20.299Z,1.70
2023-03-31T09:44:50.674Z,1.60
2023-03-31T09:47:27.012Z,1.60
2023-03-31T09:49:54.836Z,1.50
2023-03-31T09:52:30.498Z,2.00
2023-03-31T09:55:02.010Z,1.77
2023-03-31T09:57:33.549Z,1.83
2023-03-31T10:00:14.633Z,1.97
2023-03-31T10:02:45.699Z,1.80
2023-03-31T10:05:28.126Z,1.53
2023-03-31T10:08:25.690Z,2.43
2023-03-31T10:10:56.215Z,1.80
2023-03-31T10:13:26.598Z,1.97
2023-03-31T10:15:55.482Z,2.03
2023-03-31T10:18:34.181Z,1.97
2023-03-31T10:21:04.834Z,2.17
2023-03-31T10:23:36.516Z,2.17
2023-03-31T10:26:05.612Z,2.27
2023-03-31T10:28:35.542Z,1.50
2023-03-31T10:31:04.625Z,1.50
2023-03-31T10:33:34.885Z,1.60
2023-03-31T10:36:08.520Z,1.50
2023-03-31T10:38:40.953Z,2.10
2023-03-31T10:41:09.401Z,1.50
2023-03-31T10:43:41.159Z,1.90
2023-03-31T10:46:10.022Z,2.13
2023-03-31T10:48:39.797Z,1.90
2023-03-31T10:51:15.770Z,2.00
2023-03-31T10:53:46.623Z,1.60
2023-03-31T10:56:35.140Z,1.70
2023-03-31T10:59:28.132Z,2.00
2023-03-31T11:02:13.462Z,2.00
2023-03-31T11:04:52.843Z,1.87
2023-03-31T11:07:33.874Z,2.27
2023-03-31T11:10:26.505Z,1.60
2023-03-31T11:13:01.685Z,2.13
2023-03-31T11:15:40.596Z,1.90
2023-03-31T11:18:25.774Z,2.00
2023-03-31T11:21:03.077Z,1.87
2023-03-31T11:23:42.154Z,1.50
2023-03-31T11:26:17.124Z,1.67
2023-03-31T11:29:04.038Z,1.60
2023-03-31T11:31:40.557Z,1.47
2023-03-31T11:34:23.307Z,1.60
2023-03-31T11:37:18.323Z,1.50
2023-03-31T11:40:01.760Z,1.20
2023-03-31T11:42:37.747Z,1.30
2023-03-31T11:45:16.558Z,1.40
2023-03-31T11:47:47.513Z,1.80
2023-03-31T11:50:19.510Z,1.43
2023-03-31T11:52:54.348Z,1.20
2023-03-31T11:55:27.358Z,1.00
2023-03-31T11:58:03.327Z,1.10
2023-03-31T12:00:34.197Z,0.80
2023-03-31T12:03:10.584Z,0.90
2023-03-31T12:05:43.520Z,0.80
2023-03-31T12:08:17.428Z,1.63
2023-03-31T12:10:49.252Z,0.87
2023-03-31T12:13:37.195Z,0.90
2023-03-31T12:16:10.457Z,0.90
2023-03-31T12:18:43.615Z,1.27
2023-03-31T12:21:11.696Z,0.90
2023-03-31T12:23:44.386Z,1.10
2023-03-31T12:26:23.832Z,1.10
2023-03-31T12:28:59.031Z,0.93
2023-03-31T12:31:29.067Z,1.10
2023-03-31T12:34:01.057Z,1.30
2023-03-31T12:36:43.660Z,1.30
2023-03-31T12:39:24.459Z,1.30
2023-03-31T12:42:07.007Z,0.93
2023-03-31T12:44:51.902Z,1.30
2023-03-31T12:47:42.500Z,1.13
2023-03-31T12:50:39.970Z,1.20
2023-03-31T12:53:19.568Z,1.40
2023-03-31T12:55:48.702Z,1.10
2023-03-31T12:58:41.896Z,1.23
2023-03-31T13:01:22.397Z,1.30
2023-03-31T13:03:53.255Z,1.13
2023-03-31T13:07:01.119Z,1.30
2023-03-31T13:09:52.903Z,2.83
2023-03-31T13:12:23.535Z,2.90
2023-03-31T13:14:54.184Z,1.70
2023-03-31T13:17:26.381Z,2.80
2023-03-31T13:19:55.216Z,2.00
2023-03-31T13:22:35.440Z,2.00
2023-03-31T13:25:33.898Z,1.50
2023-03-31T13:28:15.914Z,2.10
2023-03-31T13:30:52.238Z,2.20
2023-03-31T13:33:33.492Z,1.50
2023-03-31T13:36:35.086Z,1.40
2023-03-31T13:39:31.709Z,2.77
2023-03-31T13:42:12.740Z,1.50
2023-03-31T13:45:07.312Z,1.30
2023-03-31T13:48:04.234Z,1.00
2023-03-31T13:50:49.569Z,1.70
2023-03-31T13:53:39.566Z,1.03
2023-03-31T13:56:28.314Z,1.40
2023-03-31T13:59:29.729Z,1.10
2023-03-31T14:02:19.635Z,0.97
2023-03-31T14:05:08.935Z,0.83
2023-03-31T14:07:43.803Z,0.90
2023-03-31T14:10:24.952Z,1.17
2023-03-31T14:12:53.148Z,0.90
2023-03-31T14:15:22.382Z,0.80
2023-03-31T14:17:50.442Z,1.00
2023-03-31T14:20:31.733Z,0.87
2023-03-31T14:23:14.626Z,0.90
2023-03-31T14:25:51.496Z,0.97
2023-03-31T14:28:35.354Z,1.20
2023-03-31T14:31:20.364Z,2.40
2023-03-31T14:34:01.160Z,0.97
2023-03-31T14:36:38.045Z,1.10
2023-03-31T14:39:11.468Z,1.20
2023-03-31T14:41:40.091Z,1.20
2023-03-31T14:44:08.852Z,1.00
2023-03-31T14:46:39.867Z,0.83
2023-03-31T14:49:15.539Z,0.90
2023-03-31T14:51:45.560Z,0.97
2023-03-31T14:54:18.789Z,1.00
2023-03-31T14:56:48.766Z,0.90
2023-03-31T14:59:21.490Z,0.73
2023-03-31T15:01:50.798Z,1.00
2023-03-31T15:04:28.773Z,1.57
2023-03-31T15:07:07.560Z,1.40
2023-03-31T15:09:38.336Z,1.10
2023-03-31T15:12:11.678Z,1.10
2023-03-31T15:14:45.857Z,1.50
2023-03-31T15:17:22.735Z,1.70
2023-03-31T15:19:55.417Z,1.40
2023-03-31T15:22:25.857Z,1.00
2023-03-31T15:24:55.685Z,1.13
2023-03-31T15:27:36.960Z,1.10
2023-03-31T15:30:08.110Z,1.70
2023-03-31T15:32:38.020Z,1.63
2023-03-31T15:35:21.111Z,1.30
2023-03-31T15:37:52.100Z,1.60
2023-03-31T15:40:24.512Z,1.70
2023-03-31T15:43:06.530Z,1.10
2023-03-31T15:45:52.477Z,1.10
2023-03-31T15:48:28.270Z,1.10
2023-03-31T15:51:00.899Z,1.00
2023-03-31T15:53:32.184Z,0.80
2023-03-31T15:56:01.735Z,1.17
2023-03-31T15:58:58.105Z,1.53
2023-03-31T16:01:32.869Z,1.50
2023-03-31T16:04:02.380Z,1.80
2023-03-31T16:06:44.681Z,1.10
2023-03-31T16:09:17.447Z,1.13
2023-03-31T16:11:49.375Z,1.20
2023-03-31T16:14:21.691Z,1.23
2023-03-31T16:16:53.739Z,1.33
2023-03-31T16:19:26.098Z,1.10
2023-03-31T16:21:55.873Z,1.07
2023-03-31T16:24:32.097Z,1.20
2023-03-31T16:27:06.107Z,1.30
2023-03-31T16:29:34.707Z,1.20
2023-03-31T16:32:12.140Z,1.60
2023-03-31T16:34:54.406Z,1.30
2023-03-31T16:37:22.501Z,1.40
2023-03-31T16:39:50.472Z,1.40
2023-03-31T16:42:23.171Z,1.07
2023-03-31T16:45:09.490Z,1.30
2023-03-31T16:50:08.375Z,1.40
2023-03-31T16:52:37.146Z,1.53
2023-03-31T16:55:05.712Z,1.37
2023-03-31T16:57:35.244Z,1.40
2023-03-31T17:00:03.632Z,1.20
2023-03-31T17:02:32.103Z,1.63
2023-03-31T17:05:12.020Z,1.50
2023-03-31T17:07:41.184Z,1.40
2023-03-31T17:10:09.880Z,1.33
2023-03-31T17:12:38.995Z,1.73
2023-03-31T17:15:07.877Z,1.40
2023-03-31T17:17:36.778Z,1.17
2023-03-31T17:20:05.424Z,1.40
2023-03-31T17:22:33.301Z,2.33
2023-03-31T17:25:01.230Z,1.40
2023-03-31T17:27:30.880Z,1.73
2023-03-31T17:30:00.268Z,1.63
2023-03-31T17:32:28.474Z,1.50
2023-03-31T17:34:56.343Z,1.27
2023-03-31T17:37:24.156Z,1.70
2023-03-31T17:39:52.677Z,1.77
2023-03-31T17:42:20.516Z,1.30
2023-03-31T17:44:51.480Z,1.70
2023-03-31T17:47:21.503Z,1.50
2023-03-31T17:49:49.256Z,1.50
2023-03-31T17:52:17.329Z,1.50
2023-03-31T17:54:45.152Z,3.07
2023-03-31T17:57:13.007Z,1.80
2023-03-31T17:59:41.073Z,1.60
2023-03-31T18:02:12.933Z,1.50
2023-03-31T18:04:42.144Z,1.83
2023-03-31T18:07:10.496Z,2.23
2023-03-31T18:09:38.243Z,1.50
2023-03-31T18:12:06.654Z,1.77
2023-03-31T18:14:34.498Z,1.67
2023-03-31T18:17:03.182Z,1.83
2023-03-31T18:19:33.579Z,1.67
2023-03-31T18:22:03.074Z,1.30
2023-03-31T18:24:32.311Z,1.50
2023-03-31T18:27:00.121Z,1.50
2023-03-31T18:29:27.950Z,1.30
2023-03-31T18:31:56.033Z,1.40
2023-03-31T18:34:23.951Z,1.40
2023-03-31T18:36:51.891Z,0.97
2023-03-31T18:39:21.290Z,1.17
2023-03-31T18:41:50.181Z,1.20
2023-03-31T18:44:17.969Z,1.07
2023-03-31T18:46:46.488Z,1.00
2023-03-31T18:49:15.320Z,1.00
2023-03-31T18:51:43.138Z,1.20
2023-03-31T18:54:11.276Z,1.00
2023-03-31T18:56:40.420Z,1.10
2023-03-31T18:59:08.591Z,1.30
2023-03-31T19:01:40.046Z,1.27
2023-03-31T19:04:08.590Z,0.90
2023-03-31T19:06:36.766Z,1.23
2023-03-31T19:09:05.290Z,1.00
2023-03-31T19:11:33.086Z,1.43
2023-03-31T19:14:02.628Z,1.00
2023-03-31T19:16:30.562Z,1.33
2023-03-31T19:18:58.365Z,1.23
2023-03-31T19:21:27.039Z,1.13
2023-03-31T19:23:54.777Z,1.20
2023-03-31T19:26:22.682Z,1.20
2023-03-31T19:28:50.498Z,1.10
2023-03-31T19:31:20.188Z,0.90
2023-03-31T19:33:48.442Z,1.20
2023-03-31T19:36:16.909Z,1.30
2023-03-31T19:38:45.183Z,1.13
2023-03-31T19:41:13.067Z,1.20
2023-03-31T19:43:41.057Z,1.27
2023-03-31T19:46:08.916Z,1.83
2023-03-31T19:48:38.184Z,1.00
2023-03-31T19:51:08.388Z,1.73
2023-03-31T19:53:38.030Z,1.30
2023-03-31T19:56:08.955Z,1.10
2023-03-31T19:58:37.546Z,1.20
2023-03-31T20:01:07.533Z,1.50
2023-03-31T20:03:35.612Z,1.47
2023-03-31T20:06:07.044Z,1.20
2023-03-31T20:08:35.891Z,1.20
2023-03-31T20:11:04.990Z,1.00
2023-03-31T20:13:35.761Z,1.30
2023-03-31T20:16:07.463Z,1.00
2023-03-31T20:18:37.132Z,1.50
2023-03-31T20:21:10.400Z,1.20
2023-03-31T20:23:38.888Z,2.07
2023-03-31T20:26:08.960Z,1.10
2023-03-31T20:28:38.780Z,1.40
2023-03-31T20:31:10.492Z,1.20
2023-03-31T20:33:38.582Z,1.67
2023-03-31T20:36:09.987Z,1.30
2023-03-31T20:38:38.405Z,1.27
2023-03-31T20:41:06.813Z,1.23
2023-03-31T20:43:35.571Z,1.50
2023-03-31T20:46:05.139Z,1.47
2023-03-31T20:48:35.930Z,1.07
2023-03-31T20:51:03.818Z,1.40
2023-03-31T20:53:35.816Z,1.27
2023-03-31T20:56:04.600Z,1.30
2023-03-31T20:58:32.366Z,1.10
2023-03-31T21:01:00.433Z,1.17
2023-03-31T21:03:28.279Z,1.60
2023-03-31T21:05:56.599Z,1.13
2023-03-31T21:08:24.365Z,1.30
2023-03-31T21:10:53.484Z,1.73
2023-03-31T21:13:23.770Z,1.10
2023-03-31T21:15:54.401Z,1.30
2023-03-31T21:18:22.623Z,1.80
2023-03-31T21:20:51.733Z,1.33
2023-03-31T21:23:20.464Z,0.90
2023-03-31T21:25:49.219Z,1.43
2023-03-31T21:28:21.507Z,1.57
2023-03-31T21:30:54.039Z,1.70
2023-03-31T21:33:22.837Z,1.30
2023-03-31T21:35:51.154Z,1.77
2023-03-31T21:38:19.633Z,1.67
2023-03-31T21:40:48.345Z,1.63
2023-03-31T21:43:17.848Z,1.47
2023-03-31T21:45:48.381Z,1.70
2023-03-31T21:48:16.913Z,1.77
2023-03-31T21:50:46.865Z,1.37
2023-03-31T21:53:14.920Z,1.87
2023-03-31T21:55:44.624Z,1.73
2023-03-31T21:58:14.004Z,2.47
2023-03-31T22:00:43.163Z,1.73
2023-03-31T22:05:44.760Z,1.90
2023-03-31T22:08:12.551Z,2.00
2023-03-31T22:10:40.317Z,1.70
2023-03-31T22:13:08.229Z,1.60
2023-03-31T22:15:36.011Z,1.80
2023-03-31T22:18:05.493Z,1.90
2023-03-31T22:20:33.516Z,2.37
2023-03-31T22:23:01.307Z,1.60
2023-03-31T22:25:29.219Z,1.57
2023-03-31T22:27:57.084Z,1.50
2023-03-31T22:30:25.079Z,1.80
2023-03-31T22:32:52.996Z,1.33
2023-03-31T22:35:22.499Z,1.60
2023-03-31T22:37:50.648Z,1.50
2023-03-31T22:40:18.645Z,1.50
2023-03-31T22:42:46.419Z,1.67
2023-03-31T22:45:14.375Z,1.20
2023-03-31T22:47:42.874Z,1.83
2023-03-31T22:50:11.919Z,1.23
2023-03-31T22:52:41.035Z,1.47
2023-03-31T22:55:09.067Z,1.30
2023-03-31T22:57:37.080Z,2.00
2023-03-31T23:00:05.752Z,1.10
2023-03-31T23:02:33.594Z,1.30
2023-03-31T23:05:01.420Z,1.70
2023-03-31T23:07:29.776Z,1.20
2023-03-31T23:09:59.008Z,0.90
2023-03-31T23:12:27.849Z,1.03
2023-03-31T23:14:55.997Z,0.90
2023-03-31T23:17:24.208Z,1.00
2023-03-31T23:19:52.578Z,0.70
2023-03-31T23:22:21.571Z,0.80
2023-03-31T23:24:49.814Z,0.90
2023-03-31T23:27:19.893Z,0.77
2023-03-31T23:29:47.683Z,0.80
2023-03-31T23:32:15.933Z,0.80
2023-03-31T23:34:43.785Z,0.60
2023-03-31T23:37:12.670Z,0.70
2023-03-31T23:39:41.856Z,0.70
2023-03-31T23:42:12.466Z,0.70
2023-03-31T23:44:41.556Z,0.77
2023-03-31T23:47:09.432Z,0.70
2023-03-31T23:49:37.275Z,0.70
2023-03-31T23:52:05.552Z,0.73
2023-03-31T23:54:33.330Z,0.70
2023-03-31T23:57:01.297Z,0.80
2023-03-31T23:59:29.055Z,0.90
